Almedia, PA

8:56 PM EST on December 09, 2016 (GMT -0500)
Amateur Radio KF3BH | | Change Station

Elev 480 ft 41.02 °N, 76.38 °W | Updated 2 seconds ago

Mostly Cloudy
Mostly Cloudy
28.8 °F
Feels Like 29 °F
N
1.0
Wind Variable Wind from SW
Gusts 1.0 mph

Today
High -- | Low -- °F
--% Chance of Precip.
Yesterday
High -- | Low -- °F
Precip. -- in
Pressure 30.35 in
Visibility 10.0 miles
Clouds Overcast 7000 ft
Windchill 29 °F
Dew Point 22 °F
Humidity 74%
Rainfall 0.00 in
Snow Depth Not available.
7:19 AM 4:37 PM
Waxing Gibbous, 79% visible
METAR KSEG 100153Z AUTO 29007KT 250V320 10SM OVC070 M01/M06 A3033 RMK AO2 SNE08 SLP275 P0000 T10061061
Pressure 30.35 in
Visibility 10.0 miles
Clouds Overcast 7000 ft
Windchill 29 °F
Dew Point 22 °F
Humidity 74%
Rainfall 0.00 in
Snow Depth Not available.
7:19 AM 4:37 PM
Waxing Gibbous, 79% visible
METAR KSEG 100153Z AUTO 29007KT 250V320 10SM OVC070 M01/M06 A3033 RMK AO2 SNE08 SLP275 P0000 T10061061

10-Day Weather Forecast

Almanac

Astronomy

Dec. 09, 2016 Rise Set
Actual Time
Civil Twilight
Nautical Twilight
Astronomical Twilight
Moon
Length of Visible Light
Length of Day
Tomorrow will be .
, % of the Moon is Illuminated

Today's Extremes

State Highs State Lows

Community

WunderPhotos

Upload Photos

1,956,532 photos uploaded!

WunderBlog® & News

Nearby

Air Quality

  Air Quality AQ Index Pollutant
Not available.

Snow Depth

Station Depth Elevation

Earthquake Activity

City Distance Mag. Time & Date
Minimum magnitude displayed is 2.5.

Coastal Water Temperatures

Place Temperature

Stations

Nearby Weather Stations

Station Location Temp. Windchill Dew Point Humidity Wind Precip. Elev Updated Type
                   

Watches & Warnings

There are currently no watches in effect.